sensor_id;sensor_type;location;lat;lon;timestamp;pressure;altitude;pressure_sealevel;temperature;humidity
13367;BME280;6752;52.612;13.630;2023-05-11T00:02:45;100703.48;;;12.27;100.00
13367;BME280;6752;52.612;13.630;2023-05-11T00:07:47;100707.24;;;12.06;100.00
13367;BME280;6752;52.612;13.630;2023-05-11T00:12:49;100715.94;;;11.84;100.00
13367;BME280;6752;52.612;13.630;2023-05-11T00:17:52;100713.34;;;11.89;100.00
13367;BME280;6752;52.612;13.630;2023-05-11T00:22:54;100707.56;;;11.61;100.00
13367;BME280;6752;52.612;13.630;2023-05-11T00:27:56;100705.41;;;11.45;100.00
13367;BME280;6752;52.612;13.630;2023-05-11T00:32:59;100713.36;;;11.15;100.00
13367;BME280;6752;52.612;13.630;2023-05-11T00:38:01;100711.25;;;11.17;100.00
13367;BME280;6752;52.612;13.630;2023-05-11T00:43:03;100711.55;;;11.06;100.00
13367;BME280;6752;52.612;13.630;2023-05-11T00:48:06;100708.70;;;11.07;100.00
13367;BME280;6752;52.612;13.630;2023-05-11T00:53:08;100710.06;;;11.07;100.00
13367;BME280;6752;52.612;13.630;2023-05-11T00:58:11;100718.00;;;11.24;100.00
13367;BME280;6752;52.612;13.630;2023-05-11T01:03:13;100699.81;;;11.27;100.00
13367;BME280;6752;52.612;13.630;2023-05-11T01:08:21;100709.05;;;11.17;100.00
13367;BME280;6752;52.612;13.630;2023-05-11T01:13:28;100707.61;;;11.14;100.00
13367;BME280;6752;52.612;13.630;2023-05-11T01:18:33;100712.23;;;11.14;100.00
13367;BME280;6752;52.612;13.630;2023-05-11T01:23:57;100717.34;;;10.88;100.00
13367;BME280;6752;52.612;13.630;2023-05-11T01:34:27;100717.80;;;10.72;100.00
13367;BME280;6752;52.612;13.630;2023-05-11T01:39:33;100727.50;;;10.62;100.00
13367;BME280;6752;52.612;13.630;2023-05-11T01:44:34;100734.37;;;10.55;100.00
13367;BME280;6752;52.612;13.630;2023-05-11T01:49:36;100740.06;;;10.50;100.00
13367;BME280;6752;52.612;13.630;2023-05-11T01:54:39;100744.94;;;10.38;100.00
13367;BME280;6752;52.612;13.630;2023-05-11T01:59:41;100748.66;;;10.32;100.00
13367;BME280;6752;52.612;13.630;2023-05-11T02:04:43;100745.34;;;10.20;100.00
13367;BME280;6752;52.612;13.630;2023-05-11T02:09:46;100750.27;;;10.13;100.00
13367;BME280;6752;52.612;13.630;2023-05-11T02:14:48;100749.20;;;9.95;100.00
13367;BME280;6752;52.612;13.630;2023-05-11T02:19:50;100753.08;;;9.97;100.00
13367;BME280;6752;52.612;13.630;2023-05-11T02:24:53;100755.75;;;9.68;100.00
13367;BME280;6752;52.612;13.630;2023-05-11T02:29:55;100749.02;;;9.48;100.00
13367;BME280;6752;52.612;13.630;2023-05-11T02:35:04;100752.25;;;9.51;100.00
13367;BME280;6752;52.612;13.630;2023-05-11T02:40:01;100760.08;;;9.60;100.00
13367;BME280;6752;52.612;13.630;2023-05-11T02:45:03;100755.78;;;9.61;100.00
13367;BME280;6752;52.612;13.630;2023-05-11T02:50:05;100760.01;;;9.47;100.00
13367;BME280;6752;52.612;13.630;2023-05-11T02:55:10;100758.42;;;9.52;100.00
13367;BME280;6752;52.612;13.630;2023-05-11T03:00:12;100769.13;;;9.31;100.00
13367;BME280;6752;52.612;13.630;2023-05-11T03:05:14;100766.20;;;9.29;100.00
13367;BME280;6752;52.612;13.630;2023-05-11T03:10:17;100777.07;;;9.32;100.00
13367;BME280;6752;52.612;13.630;2023-05-11T03:15:19;100773.72;;;9.30;100.00
13367;BME280;6752;52.612;13.630;2023-05-11T03:20:21;100769.84;;;9.15;100.00
13367;BME280;6752;52.612;13.630;2023-05-11T03:25:24;100774.98;;;9.04;100.00
13367;BME280;6752;52.612;13.630;2023-05-11T03:30:29;100774.86;;;9.18;100.00
13367;BME280;6752;52.612;13.630;2023-05-11T03:35:32;100775.93;;;9.27;100.00
13367;BME280;6752;52.612;13.630;2023-05-11T03:40:34;100773.81;;;9.19;100.00
13367;BME280;6752;52.612;13.630;2023-05-11T03:45:36;100770.05;;;9.50;100.00
13367;BME280;6752;52.612;13.630;2023-05-11T03:50:39;100766.46;;;9.60;100.00
13367;BME280;6752;52.612;13.630;2023-05-11T03:55:41;100765.87;;;9.87;100.00
13367;BME280;6752;52.612;13.630;2023-05-11T04:00:43;100770.67;;;9.91;100.00
13367;BME280;6752;52.612;13.630;2023-05-11T04:05:46;100766.16;;;9.97;100.00
13367;BME280;6752;52.612;13.630;2023-05-11T04:10:48;100771.33;;;10.19;100.00
13367;BME280;6752;52.612;13.630;2023-05-11T04:15:50;100775.16;;;10.53;100.00
13367;BME280;6752;52.612;13.630;2023-05-11T04:20:53;100776.97;;;10.69;100.00
13367;BME280;6752;52.612;13.630;2023-05-11T04:25:55;100770.86;;;10.86;100.00
13367;BME280;6752;52.612;13.630;2023-05-11T04:30:58;100768.63;;;11.04;100.00
13367;BME280;6752;52.612;13.630;2023-05-11T04:36:00;100782.58;;;11.30;100.00
13367;BME280;6752;52.612;13.630;2023-05-11T04:41:06;100781.69;;;11.49;100.00
13367;BME280;6752;52.612;13.630;2023-05-11T04:46:08;100777.55;;;11.74;100.00
13367;BME280;6752;52.612;13.630;2023-05-11T04:51:10;100785.32;;;12.07;100.00
13367;BME280;6752;52.612;13.630;2023-05-11T04:56:12;100796.72;;;12.38;100.00
13367;BME280;6752;52.612;13.630;2023-05-11T05:01:15;100798.75;;;12.66;100.00
13367;BME280;6752;52.612;13.630;2023-05-11T05:06:17;100805.81;;;13.01;100.00
13367;BME280;6752;52.612;13.630;2023-05-11T05:11:19;100808.02;;;13.31;100.00
13367;BME280;6752;52.612;13.630;2023-05-11T05:16:22;100802.80;;;13.53;100.00
13367;BME280;6752;52.612;13.630;2023-05-11T05:21:24;100802.91;;;13.99;100.00
13367;BME280;6752;52.612;13.630;2023-05-11T05:26:27;100803.45;;;14.19;100.00
13367;BME280;6752;52.612;13.630;2023-05-11T05:31:29;100814.62;;;14.35;98.05
13367;BME280;6752;52.612;13.630;2023-05-11T05:36:31;100813.41;;;14.74;97.43
13367;BME280;6752;52.612;13.630;2023-05-11T05:41:33;100817.89;;;15.40;95.65
13367;BME280;6752;52.612;13.630;2023-05-11T05:46:35;100829.77;;;15.20;92.99
13367;BME280;6752;52.612;13.630;2023-05-11T05:51:37;100825.61;;;15.85;90.98
13367;BME280;6752;52.612;13.630;2023-05-11T05:56:40;100834.19;;;15.69;88.66
13367;BME280;6752;52.612;13.630;2023-05-11T06:01:42;100836.90;;;15.94;87.14
13367;BME280;6752;52.612;13.630;2023-05-11T06:06:44;100831.33;;;16.38;83.32
13367;BME280;6752;52.612;13.630;2023-05-11T06:11:47;100833.47;;;16.45;82.60
13367;BME280;6752;52.612;13.630;2023-05-11T06:16:49;100835.23;;;16.75;79.79
13367;BME280;6752;52.612;13.630;2023-05-11T06:21:52;100828.27;;;17.19;76.72
13367;BME280;6752;52.612;13.630;2023-05-11T06:26:54;100839.25;;;17.62;75.62
13367;BME280;6752;52.612;13.630;2023-05-11T06:31:57;100832.84;;;17.86;72.98
13367;BME280;6752;52.612;13.630;2023-05-11T06:36:59;100832.14;;;18.03;70.51
13367;BME280;6752;52.612;13.630;2023-05-11T06:42:02;100834.55;;;18.18;68.32
13367;BME280;6752;52.612;13.630;2023-05-11T06:47:05;100827.30;;;18.62;68.33
13367;BME280;6752;52.612;13.630;2023-05-11T06:52:07;100832.32;;;18.67;69.32
13367;BME280;6752;52.612;13.630;2023-05-11T06:57:09;100826.66;;;18.68;66.57
13367;BME280;6752;52.612;13.630;2023-05-11T07:02:11;100831.36;;;19.19;64.90
13367;BME280;6752;52.612;13.630;2023-05-11T07:07:13;100828.89;;;19.51;63.75
13367;BME280;6752;52.612;13.630;2023-05-11T07:12:15;100827.48;;;20.02;63.65
13367;BME280;6752;52.612;13.630;2023-05-11T07:17:18;100833.89;;;20.39;61.84
13367;BME280;6752;52.612;13.630;2023-05-11T07:22:20;100834.16;;;19.62;59.06
13367;BME280;6752;52.612;13.630;2023-05-11T07:27:29;100836.77;;;19.84;60.12
13367;BME280;6752;52.612;13.630;2023-05-11T07:32:31;100830.34;;;20.66;59.84
13367;BME280;6752;52.612;13.630;2023-05-11T07:37:34;100830.85;;;20.44;57.25
13367;BME280;6752;52.612;13.630;2023-05-11T07:42:36;100830.11;;;20.85;57.66
13367;BME280;6752;52.612;13.630;2023-05-11T07:47:38;100827.49;;;21.23;55.47
13367;BME280;6752;52.612;13.630;2023-05-11T07:52:41;100822.63;;;21.47;55.63
13367;BME280;6752;52.612;13.630;2023-05-11T07:57:44;100824.91;;;22.02;55.12
13367;BME280;6752;52.612;13.630;2023-05-11T08:02:46;100824.97;;;21.34;54.58
13367;BME280;6752;52.612;13.630;2023-05-11T08:07:49;100829.80;;;21.84;54.62
13367;BME280;6752;52.612;13.630;2023-05-11T08:12:51;100831.66;;;22.20;53.16
13367;BME280;6752;52.612;13.630;2023-05-11T08:17:53;100812.88;;;22.81;53.51
13367;BME280;6752;52.612;13.630;2023-05-11T08:22:56;100809.14;;;22.48;51.24
13367;BME280;6752;52.612;13.630;2023-05-11T08:27:58;100813.27;;;23.03;52.86
13367;BME280;6752;52.612;13.630;2023-05-11T08:33:00;100812.23;;;23.43;50.79
13367;BME280;6752;52.612;13.630;2023-05-11T08:38:02;100812.63;;;23.34;48.84
13367;BME280;6752;52.612;13.630;2023-05-11T08:43:04;100815.48;;;23.97;49.31
13367;BME280;6752;52.612;13.630;2023-05-11T08:48:06;100814.07;;;23.32;48.37
13367;BME280;6752;52.612;13.630;2023-05-11T08:53:09;100811.57;;;23.49;49.63
13367;BME280;6752;52.612;13.630;2023-05-11T08:58:11;100809.34;;;23.58;47.60
13367;BME280;6752;52.612;13.630;2023-05-11T09:03:14;100807.23;;;23.43;48.02
13367;BME280;6752;52.612;13.630;2023-05-11T09:08:16;100811.42;;;23.24;47.93
13367;BME280;6752;52.612;13.630;2023-05-11T09:13:17;100806.35;;;23.35;47.59
13367;BME280;6752;52.612;13.630;2023-05-11T09:18:19;100808.11;;;23.96;46.85
13367;BME280;6752;52.612;13.630;2023-05-11T09:23:25;100812.97;;;23.81;45.93
13367;BME280;6752;52.612;13.630;2023-05-11T09:28:27;100806.09;;;23.69;46.23
13367;BME280;6752;52.612;13.630;2023-05-11T09:33:29;100791.41;;;24.58;46.26
13367;BME280;6752;52.612;13.630;2023-05-11T09:38:32;100809.50;;;24.10;46.23
13367;BME280;6752;52.612;13.630;2023-05-11T09:43:35;100792.49;;;23.68;44.41
13367;BME280;6752;52.612;13.630;2023-05-11T09:48:37;100792.70;;;24.81;45.84
13367;BME280;6752;52.612;13.630;2023-05-11T09:53:41;100801.13;;;23.06;45.20
13367;BME280;6752;52.612;13.630;2023-05-11T09:58:52;100797.04;;;24.21;44.88
13367;BME280;6752;52.612;13.630;2023-05-11T10:03:53;100806.23;;;22.89;48.15
13367;BME280;6752;52.612;13.630;2023-05-11T10:08:56;100813.73;;;24.01;45.93
13367;BME280;6752;52.612;13.630;2023-05-11T10:13:58;100797.38;;;24.72;43.64
13367;BME280;6752;52.612;13.630;2023-05-11T10:19:00;100786.66;;;24.84;43.74
13367;BME280;6752;52.612;13.630;2023-05-11T10:24:03;100788.45;;;24.73;45.83
13367;BME280;6752;52.612;13.630;2023-05-11T10:29:06;100776.80;;;24.71;42.37
13367;BME280;6752;52.612;13.630;2023-05-11T10:34:09;100777.64;;;25.30;41.06
13367;BME280;6752;52.612;13.630;2023-05-11T10:39:11;100775.05;;;24.06;42.20
13367;BME280;6752;52.612;13.630;2023-05-11T10:44:25;100777.20;;;24.32;43.36
13367;BME280;6752;52.612;13.630;2023-05-11T10:49:35;100777.61;;;23.75;42.06
13367;BME280;6752;52.612;13.630;2023-05-11T10:59:41;100774.00;;;23.75;41.95
13367;BME280;6752;52.612;13.630;2023-05-11T11:04:45;100802.26;;;22.31;48.45
13367;BME280;6752;52.612;13.630;2023-05-11T11:14:58;100816.36;;;21.50;49.24
13367;BME280;6752;52.612;13.630;2023-05-11T11:19:59;100822.12;;;21.73;51.04
13367;BME280;6752;52.612;13.630;2023-05-11T11:25:04;100816.93;;;21.81;49.63
13367;BME280;6752;52.612;13.630;2023-05-11T11:40:47;100820.95;;;22.11;50.91
13367;BME280;6752;52.612;13.630;2023-05-11T11:45:58;100815.75;;;22.04;47.60
13367;BME280;6752;52.612;13.630;2023-05-11T11:51:04;100811.91;;;22.79;49.29
13367;BME280;6752;52.612;13.630;2023-05-11T12:01:17;100815.34;;;22.73;47.26
13367;BME280;6752;52.612;13.630;2023-05-11T12:06:19;100817.48;;;22.58;48.25
13367;BME280;6752;52.612;13.630;2023-05-11T12:11:21;100810.36;;;22.92;47.49
13367;BME280;6752;52.612;13.630;2023-05-11T12:16:23;100830.88;;;22.74;47.43
13367;BME280;6752;52.612;13.630;2023-05-11T12:21:26;100828.35;;;22.18;45.62
13367;BME280;6752;52.612;13.630;2023-05-11T12:26:30;100808.19;;;22.89;42.26
13367;BME280;6752;52.612;13.630;2023-05-11T12:31:39;100816.72;;;23.04;43.36
13367;BME280;6752;52.612;13.630;2023-05-11T12:36:37;100809.47;;;23.24;41.69
13367;BME280;6752;52.612;13.630;2023-05-11T12:41:41;100810.58;;;24.12;43.25
13367;BME280;6752;52.612;13.630;2023-05-11T12:46:43;100811.05;;;24.02;41.91
13367;BME280;6752;52.612;13.630;2023-05-11T12:51:49;100814.16;;;23.26;43.92
13367;BME280;6752;52.612;13.630;2023-05-11T12:56:49;100816.05;;;23.47;43.84
13367;BME280;6752;52.612;13.630;2023-05-11T13:01:51;100813.94;;;23.58;43.13
13367;BME280;6752;52.612;13.630;2023-05-11T13:06:53;100810.48;;;23.96;42.35
13367;BME280;6752;52.612;13.630;2023-05-11T13:12:15;100797.54;;;24.71;41.68
13367;BME280;6752;52.612;13.630;2023-05-11T13:17:31;100800.60;;;24.17;41.13
13367;BME280;6752;52.612;13.630;2023-05-11T13:22:33;100789.31;;;24.53;39.49
13367;BME280;6752;52.612;13.630;2023-05-11T13:27:35;100789.08;;;24.70;38.17
13367;BME280;6752;52.612;13.630;2023-05-11T13:32:38;100794.30;;;23.75;39.03
13367;BME280;6752;52.612;13.630;2023-05-11T13:37:40;100785.06;;;24.28;41.49
13367;BME280;6752;52.612;13.630;2023-05-11T13:42:42;100786.26;;;23.67;40.41
13367;BME280;6752;52.612;13.630;2023-05-11T13:47:45;100787.30;;;23.45;41.42
13367;BME280;6752;52.612;13.630;2023-05-11T13:52:47;100787.47;;;23.00;40.81
13367;BME280;6752;52.612;13.630;2023-05-11T13:57:50;100781.45;;;22.83;40.90
13367;BME280;6752;52.612;13.630;2023-05-11T14:02:52;100787.25;;;23.64;41.32
13367;BME280;6752;52.612;13.630;2023-05-11T14:07:54;100782.86;;;22.69;40.35
13367;BME280;6752;52.612;13.630;2023-05-11T14:12:57;100792.75;;;23.34;42.19
13367;BME280;6752;52.612;13.630;2023-05-11T14:17:59;100783.38;;;22.73;41.03
13367;BME280;6752;52.612;13.630;2023-05-11T14:23:01;100781.19;;;22.82;43.07
13367;BME280;6752;52.612;13.630;2023-05-11T14:28:03;100780.45;;;23.63;42.17
13367;BME280;6752;52.612;13.630;2023-05-11T14:33:05;100776.51;;;23.25;39.61
13367;BME280;6752;52.612;13.630;2023-05-11T14:38:07;100772.55;;;22.62;41.76
13367;BME280;6752;52.612;13.630;2023-05-11T14:43:10;100769.41;;;22.78;40.96
13367;BME280;6752;52.612;13.630;2023-05-11T14:48:12;100777.29;;;22.81;42.68
13367;BME280;6752;52.612;13.630;2023-05-11T14:53:14;100778.33;;;22.57;42.66
13367;BME280;6752;52.612;13.630;2023-05-11T14:58:17;100781.69;;;22.20;41.77
13367;BME280;6752;52.612;13.630;2023-05-11T15:03:19;100775.72;;;22.20;40.21
13367;BME280;6752;52.612;13.630;2023-05-11T15:08:22;100790.72;;;21.93;42.69
13367;BME280;6752;52.612;13.630;2023-05-11T15:13:24;100805.92;;;21.86;45.09
13367;BME280;6752;52.612;13.630;2023-05-11T15:18:26;100800.52;;;21.97;44.91
13367;BME280;6752;52.612;13.630;2023-05-11T15:23:29;100804.11;;;21.71;44.61
13367;BME280;6752;52.612;13.630;2023-05-11T15:28:31;100812.62;;;21.53;44.31
13367;BME280;6752;52.612;13.630;2023-05-11T15:33:33;100808.98;;;21.38;44.54
13367;BME280;6752;52.612;13.630;2023-05-11T15:38:36;100826.11;;;21.23;45.49
13367;BME280;6752;52.612;13.630;2023-05-11T15:43:38;100827.78;;;21.22;45.75
13367;BME280;6752;52.612;13.630;2023-05-11T15:48:40;100829.59;;;21.24;45.89
13367;BME280;6752;52.612;13.630;2023-05-11T15:53:43;100834.14;;;21.27;47.07
13367;BME280;6752;52.612;13.630;2023-05-11T15:58:45;100835.81;;;21.06;45.93
13367;BME280;6752;52.612;13.630;2023-05-11T16:03:48;100831.61;;;21.11;45.51
13367;BME280;6752;52.612;13.630;2023-05-11T16:08:50;100835.34;;;21.13;46.87
13367;BME280;6752;52.612;13.630;2023-05-11T16:13:52;100833.01;;;20.87;45.96
13367;BME280;6752;52.612;13.630;2023-05-11T16:18:55;100828.92;;;20.96;45.80
13367;BME280;6752;52.612;13.630;2023-05-11T16:23:57;100834.61;;;21.17;45.56
13367;BME280;6752;52.612;13.630;2023-05-11T16:28:59;100837.21;;;21.62;46.72
13367;BME280;6752;52.612;13.630;2023-05-11T16:34:02;100828.81;;;21.53;45.81
13367;BME280;6752;52.612;13.630;2023-05-11T16:39:04;100837.11;;;21.41;46.95
13367;BME280;6752;52.612;13.630;2023-05-11T16:44:06;100838.16;;;21.06;45.68
13367;BME280;6752;52.612;13.630;2023-05-11T16:49:09;100839.34;;;20.92;46.55
13367;BME280;6752;52.612;13.630;2023-05-11T16:54:11;100844.67;;;20.78;46.80
13367;BME280;6752;52.612;13.630;2023-05-11T16:59:13;100853.87;;;20.69;47.19
13367;BME280;6752;52.612;13.630;2023-05-11T17:04:16;100860.49;;;20.73;47.74
13367;BME280;6752;52.612;13.630;2023-05-11T17:09:18;100859.08;;;20.46;47.83
13367;BME280;6752;52.612;13.630;2023-05-11T17:14:21;100857.56;;;20.31;48.07
13367;BME280;6752;52.612;13.630;2023-05-11T17:19:23;100863.64;;;20.33;49.05
13367;BME280;6752;52.612;13.630;2023-05-11T17:24:25;100871.19;;;20.15;49.20
13367;BME280;6752;52.612;13.630;2023-05-11T17:29:28;100865.80;;;20.01;49.39
13367;BME280;6752;52.612;13.630;2023-05-11T17:34:30;100873.29;;;19.93;49.61
13367;BME280;6752;52.612;13.630;2023-05-11T17:39:32;100877.45;;;19.73;49.24
13367;BME280;6752;52.612;13.630;2023-05-11T17:44:35;100881.05;;;19.71;49.17
13367;BME280;6752;52.612;13.630;2023-05-11T17:49:37;100892.47;;;19.48;49.53
13367;BME280;6752;52.612;13.630;2023-05-11T17:54:39;100890.29;;;19.60;49.08
13367;BME280;6752;52.612;13.630;2023-05-11T17:59:42;100894.23;;;19.28;50.14
13367;BME280;6752;52.612;13.630;2023-05-11T18:04:44;100908.67;;;19.01;51.22
13367;BME280;6752;52.612;13.630;2023-05-11T18:09:47;100910.48;;;19.12;51.71
13367;BME280;6752;52.612;13.630;2023-05-11T18:14:49;100906.88;;;19.01;51.61
13367;BME280;6752;52.612;13.630;2023-05-11T18:19:52;100918.83;;;18.88;52.28
13367;BME280;6752;52.612;13.630;2023-05-11T18:24:55;100922.68;;;18.82;52.42
13367;BME280;6752;52.612;13.630;2023-05-11T18:30:00;100923.53;;;18.90;51.86
13367;BME280;6752;52.612;13.630;2023-05-11T18:35:02;100929.14;;;18.74;52.21
13367;BME280;6752;52.612;13.630;2023-05-11T18:40:04;100933.22;;;18.64;52.58
13367;BME280;6752;52.612;13.630;2023-05-11T18:45:07;100936.61;;;18.58;52.64
13367;BME280;6752;52.612;13.630;2023-05-11T18:50:09;100949.91;;;18.45;53.44
13367;BME280;6752;52.612;13.630;2023-05-11T18:55:11;100956.78;;;18.40;55.73
13367;BME280;6752;52.612;13.630;2023-05-11T19:00:14;100964.27;;;18.05;58.78
13367;BME280;6752;52.612;13.630;2023-05-11T19:05:16;100973.95;;;17.94;57.07
13367;BME280;6752;52.612;13.630;2023-05-11T19:10:18;100967.67;;;17.98;56.78
13367;BME280;6752;52.612;13.630;2023-05-11T19:15:21;100987.92;;;17.82;57.49
13367;BME280;6752;52.612;13.630;2023-05-11T19:20:26;100992.84;;;17.77;57.05
13367;BME280;6752;52.612;13.630;2023-05-11T19:25:28;100991.22;;;17.57;57.33
13367;BME280;6752;52.612;13.630;2023-05-11T19:30:30;101004.45;;;17.33;59.07
13367;BME280;6752;52.612;13.630;2023-05-11T19:35:33;101020.10;;;17.28;59.93
13367;BME280;6752;52.612;13.630;2023-05-11T19:40:35;101016.95;;;17.19;60.01
13367;BME280;6752;52.612;13.630;2023-05-11T19:45:37;101023.41;;;16.97;63.73
13367;BME280;6752;52.612;13.630;2023-05-11T19:50:40;101015.01;;;17.06;64.07
13367;BME280;6752;52.612;13.630;2023-05-11T19:55:42;101020.01;;;16.70;67.95
13367;BME280;6752;52.612;13.630;2023-05-11T20:00:44;101028.39;;;16.45;69.72
13367;BME280;6752;52.612;13.630;2023-05-11T20:05:46;101026.25;;;16.49;70.15
13367;BME280;6752;52.612;13.630;2023-05-11T20:10:48;101030.37;;;16.74;64.71
13367;BME280;6752;52.612;13.630;2023-05-11T20:15:50;101032.00;;;16.64;65.19
13367;BME280;6752;52.612;13.630;2023-05-11T20:20:53;101036.78;;;16.69;64.87
13367;BME280;6752;52.612;13.630;2023-05-11T20:25:58;101036.02;;;16.73;64.71
13367;BME280;6752;52.612;13.630;2023-05-11T20:31:01;101035.80;;;16.52;66.15
13367;BME280;6752;52.612;13.630;2023-05-11T20:36:03;101036.44;;;16.57;66.11
13367;BME280;6752;52.612;13.630;2023-05-11T20:41:05;101039.03;;;16.38;68.07
13367;BME280;6752;52.612;13.630;2023-05-11T20:46:08;101045.70;;;16.03;73.25
13367;BME280;6752;52.612;13.630;2023-05-11T20:51:10;101041.54;;;16.01;73.16
13367;BME280;6752;52.612;13.630;2023-05-11T20:56:12;101052.08;;;15.84;75.36
13367;BME280;6752;52.612;13.630;2023-05-11T21:01:14;101046.23;;;15.72;78.17
13367;BME280;6752;52.612;13.630;2023-05-11T21:06:17;101047.31;;;15.62;77.89
13367;BME280;6752;52.612;13.630;2023-05-11T21:11:19;101047.10;;;15.60;77.13
13367;BME280;6752;52.612;13.630;2023-05-11T21:16:21;101048.55;;;15.51;78.08
13367;BME280;6752;52.612;13.630;2023-05-11T21:21:24;101057.43;;;15.36;78.83
13367;BME280;6752;52.612;13.630;2023-05-11T21:26:26;101056.55;;;15.39;77.21
13367;BME280;6752;52.612;13.630;2023-05-11T21:31:28;101048.89;;;15.55;75.37
13367;BME280;6752;52.612;13.630;2023-05-11T21:36:31;101053.55;;;15.66;73.20
13367;BME280;6752;52.612;13.630;2023-05-11T21:41:33;101068.06;;;15.44;75.80
13367;BME280;6752;52.612;13.630;2023-05-11T21:46:35;101066.17;;;15.39;75.02
13367;BME280;6752;52.612;13.630;2023-05-11T21:51:37;101059.93;;;15.57;72.30
13367;BME280;6752;52.612;13.630;2023-05-11T21:56:40;101070.04;;;15.60;70.25
13367;BME280;6752;52.612;13.630;2023-05-11T22:01:42;101071.64;;;15.44;71.42
13367;BME280;6752;52.612;13.630;2023-05-11T22:06:44;101077.49;;;15.36;70.99
13367;BME280;6752;52.612;13.630;2023-05-11T22:11:47;101087.64;;;15.36;71.01
13367;BME280;6752;52.612;13.630;2023-05-11T22:16:49;101080.88;;;15.47;68.53
13367;BME280;6752;52.612;13.630;2023-05-11T22:21:52;101093.86;;;15.43;67.65
13367;BME280;6752;52.612;13.630;2023-05-11T22:26:54;101090.16;;;15.57;65.73
13367;BME280;6752;52.612;13.630;2023-05-11T22:31:56;101085.22;;;15.51;65.33
13367;BME280;6752;52.612;13.630;2023-05-11T22:36:59;101092.16;;;15.65;63.19
13367;BME280;6752;52.612;13.630;2023-05-11T22:42:01;101090.35;;;15.53;63.10
13367;BME280;6752;52.612;13.630;2023-05-11T22:47:03;101093.47;;;15.51;62.54
13367;BME280;6752;52.612;13.630;2023-05-11T22:52:06;101094.67;;;15.49;62.36
13367;BME280;6752;52.612;13.630;2023-05-11T22:57:08;101097.44;;;15.43;61.82
13367;BME280;6752;52.612;13.630;2023-05-11T23:02:11;101093.97;;;15.36;61.99
13367;BME280;6752;52.612;13.630;2023-05-11T23:07:13;101097.76;;;15.39;61.41
13367;BME280;6752;52.612;13.630;2023-05-11T23:12:15;101102.45;;;15.15;62.31
13367;BME280;6752;52.612;13.630;2023-05-11T23:17:18;101100.06;;;15.01;62.53
13367;BME280;6752;52.612;13.630;2023-05-11T23:22:20;101101.86;;;14.83;63.28
13367;BME280;6752;52.612;13.630;2023-05-11T23:27:22;101102.88;;;14.68;63.48
13367;BME280;6752;52.612;13.630;2023-05-11T23:32:24;101104.05;;;14.55;63.74
13367;BME280;6752;52.612;13.630;2023-05-11T23:37:27;101099.28;;;14.44;63.90
13367;BME280;6752;52.612;13.630;2023-05-11T23:42:29;101099.03;;;14.31;64.40
13367;BME280;6752;52.612;13.630;2023-05-11T23:47:31;101092.29;;;14.24;64.25
13367;BME280;6752;52.612;13.630;2023-05-11T23:52:34;101099.16;;;14.15;64.60
13367;BME280;6752;52.612;13.630;2023-05-11T23:57:36;101097.66;;;14.04;64.95
